Back to Top

Language: 

My Weather Underground Personal Weather Station Historical Data with Graphs...

Delerius Weather Station Historical Data
Daily Summary for January 7, 2017 Units:  Metric    English   Both
« Previous Day
Next Day »
Daily Weekly Monthly Yearly Custom
  High: Low: Average:
Temperature: 11.1 °C 5.3 °C 8.4 °C
Dew Point: 9.7 °C 4.6 °C 7.6 °C
Humidity: 98 % 88 % 94 %
Wind Speed: 14.5 km/h 0 km/h 5 km/h
Wind Gust: 19.3 km/h - -
Wind:- - WNW
Pressure: 1031.4 hPa 1029 hPa -
Precipitation: 0 mm    
Historical Graphs
 
 
Tabular Data for January 7, 2017
Time Temperature Dew Point Pressure Wind Wind Speed Wind Gust Humidity Rainfall Rate (Hourly) solar Conditions
00:00 6.8 °C 6.4 °C 1029.3 hPa Calm   12.9 km/h 97 % 0 mm 0 W/m2
00:05 6.9 °C 6.4 °C 1029.3 hPa Calm   12.9 km/h 97 % 0 mm 0 W/m2
00:15 7 °C 6.6 °C 1029.3 hPa Calm     97 % 0 mm 0 W/m2
00:20 7.1 °C 6.6 °C 1029 hPa Calm     97 % 0 mm 0 W/m2
00:25 7.1 °C 6.7 °C 1029 hPa Calm   1.6 km/h 97 % 0 mm 0 W/m2
00:30 7.2 °C 6.7 °C 1029 hPa ENE 1.6 km/h 3.2 km/h 97 % 0 mm 0 W/m2
00:35 7.2 °C 6.7 °C 1029 hPa ENE 1.6 km/h 3.2 km/h 97 % 0 mm 0 W/m2
00:45 7.1 °C 6.7 °C 1029 hPa Calm     97 % 0 mm 0 W/m2
00:50 7.1 °C 6.4 °C 1029 hPa WSW 1.6 km/h 3.2 km/h 96 % 0 mm 0 W/m2
00:55 7.1 °C 6.7 °C 1029 hPa WSW 3.2 km/h 6.4 km/h 97 % 0 mm 0 W/m2
01:00 7.1 °C 6.7 °C 1029 hPa WSW 3.2 km/h 4.8 km/h 97 % 0 mm 0 W/m2
01:05 7.1 °C 6.7 °C 1029 hPa WSW 3.2 km/h 4.8 km/h 97 % 0 mm 0 W/m2
01:10 7.2 °C 6.7 °C 1029.3 hPa WSW 1.6 km/h 1.6 km/h 97 % 0 mm 0 W/m2
01:15 7.1 °C 6.7 °C 1029.3 hPa Calm   1.6 km/h 97 % 0 mm 0 W/m2
01:25 7 °C 6.6 °C 1029.3 hPa Calm   1.6 km/h 97 % 0 mm 0 W/m2
01:30 6.9 °C 6.3 °C 1029.3 hPa Calm   1.6 km/h 96 % 0 mm 0 W/m2
01:40 7.1 °C 6.6 °C 1029.3 hPa WSW 4.8 km/h 6.4 km/h 97 % 0 mm 0 W/m2
01:45 7.2 °C 6.8 °C 1029.3 hPa WSW 6.4 km/h 8 km/h 97 % 0 mm 0 W/m2
01:50 7.3 °C 6.9 °C 1029.3 hPa WSW 6.4 km/h 9.7 km/h 97 % 0 mm 0 W/m2
01:55 7.4 °C 6.9 °C 1029.3 hPa WSW 6.4 km/h 9.7 km/h 97 % 0 mm 0 W/m2
02:00 7.4 °C 6.9 °C 1029.3 hPa WSW 6.4 km/h 6.4 km/h 97 % 0 mm 0 W/m2
02:05 7.4 °C 7 °C 1029.3 hPa WSW 4.8 km/h 6.4 km/h 97 % 0 mm 0 W/m2
02:15 7.4 °C 7 °C 1029.3 hPa Calm   1.6 km/h 97 % 0 mm 0 W/m2
02:20 7.4 °C 6.9 °C 1029.3 hPa Calm   1.6 km/h 97 % 0 mm 0 W/m2
02:25 7.4 °C 6.9 °C 1029.3 hPa Calm   6.4 km/h 97 % 0 mm 0 W/m2
02:30 7.5 °C 7.1 °C 1029.3 hPa WSW 1.6 km/h 1.6 km/h 97 % 0 mm 0 W/m2
02:35 7.7 °C 7.3 °C 1029.3 hPa WNW 4.8 km/h 11.3 km/h 97 % 0 mm 0 W/m2
02:40 8.1 °C 7.8 °C 1029.3 hPa WNW 9.7 km/h 16.1 km/h 98 % 0 mm 0 W/m2
02:50 8.5 °C 8.1 °C 1029 hPa WNW 14.5 km/h 14.5 km/h 97 % 0 mm 0 W/m2
02:55 8.6 °C 8.1 °C 1029.3 hPa WNW 14.5 km/h 19.3 km/h 97 % 0 mm 0 W/m2
03:00 8.6 °C 8.2 °C 1029 hPa NW 12.9 km/h 14.5 km/h 97 % 0 mm 0 W/m2
03:05 8.6 °C 8.2 °C 1029 hPa West 14.5 km/h 19.3 km/h 97 % 0 mm 0 W/m2
03:10 8.7 °C 8.3 °C 1029 hPa WNW 14.5 km/h 14.5 km/h 97 % 0 mm 0 W/m2
03:15 8.7 °C 8.3 °C 1029 hPa NW 14.5 km/h 14.5 km/h 97 % 0 mm 0 W/m2
03:25 8.8 °C 8.3 °C 1029 hPa WNW 12.9 km/h 16.1 km/h 97 % 0 mm 0 W/m2
03:30 8.8 °C 8.4 °C 1029.3 hPa WNW 12.9 km/h 12.9 km/h 97 % 0 mm 0 W/m2
03:35 8.9 °C 8.4 °C 1029.3 hPa WNW 9.7 km/h 12.9 km/h 97 % 0 mm 0 W/m2
03:40 8.9 °C 8.5 °C 1029.3 hPa WNW 9.7 km/h 9.7 km/h 97 % 0 mm 0 W/m2
03:45 9 °C 8.4 °C 1029.3 hPa West 9.7 km/h 9.7 km/h 96 % 0 mm 0 W/m2
03:50 9 °C 8.4 °C 1029.3 hPa NW 11.3 km/h 16.1 km/h 96 % 0 mm 0 W/m2
03:55 9.1 °C 8.4 °C 1029.3 hPa NW 12.9 km/h 16.1 km/h 96 % 0 mm 0 W/m2
04:05 9 °C 8.4 °C 1029.3 hPa WNW 11.3 km/h 11.3 km/h 96 % 0 mm 0 W/m2
04:10 9 °C 8.2 °C 1029.3 hPa WNW 11.3 km/h 11.3 km/h 95 % 0 mm 0 W/m2
04:15 9.1 °C 8.3 °C 1029.3 hPa NW 11.3 km/h 11.3 km/h 95 % 0 mm 0 W/m2
04:20 9.1 °C 8.3 °C 1029.3 hPa West 9.7 km/h 14.5 km/h 95 % 0 mm 0 W/m2
04:25 9 °C 8.2 °C 1029.3 hPa WNW 11.3 km/h 16.1 km/h 95 % 0 mm 0 W/m2
04:30 9 °C 8.2 °C 1029.3 hPa WNW 9.7 km/h 9.7 km/h 95 % 0 mm 0 W/m2
04:40 8.9 °C 8.1 °C 1029.3 hPa WNW 11.3 km/h 11.3 km/h 95 % 0 mm 0 W/m2
04:45 8.8 °C 7.9 °C 1029.3 hPa WNW 11.3 km/h 11.3 km/h 94 % 0 mm 0 W/m2
04:50 8.7 °C 7.8 °C 1029.3 hPa WNW 11.3 km/h 11.3 km/h 94 % 0 mm 0 W/m2
04:55 8.7 °C 7.9 °C 1029.3 hPa WNW 12.9 km/h 12.9 km/h 95 % 0 mm 0 W/m2
05:00 8.6 °C 7.8 °C 1029.3 hPa WNW 11.3 km/h 11.3 km/h 95 % 0 mm 0 W/m2
05:05 8.6 °C 7.8 °C 1029.3 hPa WNW 9.7 km/h 11.3 km/h 95 % 0 mm 0 W/m2
05:15 8.5 °C 7.6 °C 1029.3 hPa WNW 11.3 km/h 11.3 km/h 94 % 0 mm 0 W/m2
05:20 8.4 °C 7.7 °C 1029.3 hPa WNW 9.7 km/h 9.7 km/h 95 % 0 mm 0 W/m2
05:25 8.4 °C 7.7 °C 1029.3 hPa WNW 9.7 km/h 9.7 km/h 95 % 0 mm 0 W/m2
05:30 8.4 °C 7.6 °C 1029.3 hPa NW 9.7 km/h 9.7 km/h 95 % 0 mm 0 W/m2
05:35 8.4 °C 7.6 °C 1029.3 hPa WNW 9.7 km/h 11.3 km/h 95 % 0 mm 0 W/m2
05:40 8.4 °C 7.6 °C 1029.3 hPa NW 9.7 km/h 11.3 km/h 95 % 0 mm 0 W/m2
05:45 8.3 °C 7.6 °C 1029.3 hPa WNW 9.7 km/h 11.3 km/h 95 % 0 mm 0 W/m2
05:55 8.3 °C 7.6 °C 1029.3 hPa West 9.7 km/h 14.5 km/h 95 % 0 mm 0 W/m2
06:05 8.4 °C 7.7 °C 1029.7 hPa NW 11.3 km/h 12.9 km/h 95 % 0 mm 0 W/m2
06:10 8.6 °C 7.8 °C 1029.7 hPa WNW 12.9 km/h 12.9 km/h 95 % 0 mm 0 W/m2
06:15 8.7 °C 7.9 °C 1029.7 hPa NW 12.9 km/h 12.9 km/h 95 % 0 mm 0 W/m2
06:20 8.8 °C 8 °C 1029.7 hPa NW 11.3 km/h 11.3 km/h 95 % 0 mm 0 W/m2
06:25 8.8 °C 8.1 °C 1029.7 hPa NW 9.7 km/h 11.3 km/h 95 % 0 mm 0 W/m2
06:35 9 °C 8.2 °C 1030 hPa NW 9.7 km/h 11.3 km/h 95 % 0 mm 0 W/m2
06:40 9 °C 8.2 °C 1030 hPa WNW 9.7 km/h 11.3 km/h 95 % 0 mm 0 W/m2
06:50 9.1 °C 8.3 °C 1030 hPa NW 9.7 km/h 9.7 km/h 95 % 0 mm 0 W/m2
06:55 9.1 °C 8.2 °C 1030 hPa WNW 8 km/h 9.7 km/h 94 % 0 mm 0 W/m2
07:00 8.9 °C 8.1 °C 1030 hPa WNW 9.7 km/h 9.7 km/h 94 % 0 mm 0 W/m2
07:05 8.9 °C 8 °C 1030 hPa WNW 9.7 km/h 9.7 km/h 94 % 0 mm 0 W/m2
07:10 8.8 °C 7.9 °C 1030 hPa NW 9.7 km/h 9.7 km/h 94 % 0 mm 0 W/m2
07:15 8.8 °C 7.9 °C 1030 hPa NW 9.7 km/h 11.3 km/h 94 % 0 mm 0 W/m2
07:25 8.8 °C 7.9 °C 1030.4 hPa NW 11.3 km/h 12.9 km/h 94 % 0 mm 0 W/m2
07:30 8.9 °C 8.1 °C 1030 hPa WNW 9.7 km/h 12.9 km/h 95 % 0 mm 0 W/m2
07:35 8.9 °C 8.1 °C 1030.4 hPa WNW 8 km/h 12.9 km/h 95 % 0 mm 0 W/m2
07:40 8.9 °C 8 °C 1030.4 hPa WNW 8 km/h 11.3 km/h 94 % 0 mm 0 W/m2
07:45 8.9 °C 8 °C 1030.4 hPa NW 8 km/h 11.3 km/h 94 % 0 mm 0 W/m2
07:50 8.9 °C 8 °C 1030.4 hPa WNW 9.7 km/h 9.7 km/h 94 % 0 mm 0 W/m2
08:00 8.8 °C 7.9 °C 1030.4 hPa WNW 8 km/h 9.7 km/h 94 % 0 mm 0 W/m2
08:05 8.8 °C 7.9 °C 1030.4 hPa NW 8 km/h 9.7 km/h 94 % 0 mm 0 W/m2
08:10 8.7 °C 7.8 °C 1030.4 hPa NW 6.4 km/h 9.7 km/h 94 % 0 mm 0 W/m2
08:15 8.6 °C 7.8 °C 1030.4 hPa NW 6.4 km/h 9.7 km/h 95 % 0 mm 0 W/m2
08:20 8.5 °C 7.6 °C 1030.4 hPa NW 6.4 km/h 6.4 km/h 94 % 0 mm 5 W/m2
08:25 8.4 °C 7.7 °C 1030.4 hPa NW 6.4 km/h 6.4 km/h 95 % 0 mm 7 W/m2
08:35 8.4 °C 7.6 °C 1030.7 hPa WNW 4.8 km/h 9.7 km/h 95 % 0 mm 9 W/m2
08:40 8.4 °C 7.7 °C 1030.7 hPa WNW 6.4 km/h 8 km/h 95 % 0 mm 11 W/m2
08:45 8.5 °C 7.7 °C 1030.7 hPa WNW 8 km/h 8 km/h 95 % 0 mm 14 W/m2
08:50 8.5 °C 7.7 °C 1030.7 hPa WNW 6.4 km/h 6.4 km/h 95 % 0 mm 21 W/m2
08:55 8.4 °C 7.7 °C 1030.7 hPa WNW 4.8 km/h 6.4 km/h 95 % 0 mm 32 W/m2
09:00 8.4 °C 7.7 °C 1030.7 hPa WNW 3.2 km/h 3.2 km/h 95 % 0 mm 33 W/m2
09:10 8.4 °C 7.8 °C 1030.7 hPa WNW 3.2 km/h 3.2 km/h 96 % 0 mm 46 W/m2
09:15 8.5 °C 7.9 °C 1030.7 hPa WNW 3.2 km/h 4.8 km/h 96 % 0 mm 32 W/m2
09:20 8.6 °C 7.9 °C 1030.7 hPa WNW 4.8 km/h 6.4 km/h 96 % 0 mm 33 W/m2
09:25 8.6 °C 8 °C 1030.7 hPa WNW 4.8 km/h 6.4 km/h 96 % 0 mm 42 W/m2
09:30 8.7 °C 8.1 °C 1030.7 hPa WNW 4.8 km/h 8 km/h 96 % 0 mm 44 W/m2
09:35 8.7 °C 8.1 °C 1030.7 hPa WNW 4.8 km/h 8 km/h 96 % 0 mm 139 W/m2
09:45 9.1 °C 8.5 °C 1031 hPa NW 8 km/h 11.3 km/h 96 % 0 mm 146 W/m2
09:50 9.3 °C 8.7 °C 1031 hPa NW 9.7 km/h 9.7 km/h 96 % 0 mm 86 W/m2
09:55 9.4 °C 8.8 °C 1031 hPa WNW 8 km/h 16.1 km/h 96 % 0 mm 95 W/m2
10:00 9.6 °C 9 °C 1031 hPa WNW 8 km/h 8 km/h 96 % 0 mm 109 W/m2
10:05 9.8 °C 9.2 °C 1031 hPa WNW 8 km/h 8 km/h 96 % 0 mm 199 W/m2
10:10 10.1 °C 9.4 °C 1031 hPa NW 8 km/h 9.7 km/h 96 % 0 mm 137 W/m2
10:15 10.2 °C 9.4 °C 1031 hPa WNW 8 km/h 9.7 km/h 95 % 0 mm 104 W/m2
10:25 10.2 °C 9.3 °C 1031 hPa NW 6.4 km/h 8 km/h 94 % 0 mm 65 W/m2
10:30 10.2 °C 9.2 °C 1031 hPa WNW 6.4 km/h 11.3 km/h 93 % 0 mm 51 W/m2
10:35 10.2 °C 9.1 °C 1031 hPa WNW 4.8 km/h 11.3 km/h 93 % 0 mm 49 W/m2
10:40 10.1 °C 9.1 °C 1031.4 hPa WNW 4.8 km/h 4.8 km/h 93 % 0 mm 42 W/m2
10:45 10.1 °C 9.1 °C 1031 hPa WNW 3.2 km/h 4.8 km/h 93 % 0 mm 35 W/m2
10:50 10.1 °C 9 °C 1031.4 hPa NW 3.2 km/h 3.2 km/h 93 % 0 mm 37 W/m2
11:00 9.9 °C 8.9 °C 1031 hPa NW 3.2 km/h 3.2 km/h 93 % 0 mm 49 W/m2
11:05 9.9 °C 8.9 °C 1031 hPa NW 3.2 km/h 6.4 km/h 93 % 0 mm 62 W/m2
11:15 10 °C 9.1 °C 1031.4 hPa NW 3.2 km/h 4.8 km/h 94 % 0 mm 49 W/m2
11:20 10 °C 9.1 °C 1031.4 hPa NW 1.6 km/h 1.6 km/h 94 % 0 mm 40 W/m2
11:25 10 °C 9.1 °C 1031.4 hPa NW 1.6 km/h 4.8 km/h 94 % 0 mm 51 W/m2
11:35 9.9 °C 9 °C 1031 hPa NW 3.2 km/h 3.2 km/h 94 % 0 mm 42 W/m2
11:40 9.9 °C 9 °C 1031 hPa NW 1.6 km/h 6.4 km/h 94 % 0 mm 47 W/m2
11:45 10 °C 9.1 °C 1031 hPa NW 3.2 km/h 6.4 km/h 94 % 0 mm 67 W/m2
11:50 10 °C 9.1 °C 1031 hPa NW 3.2 km/h 3.2 km/h 94 % 0 mm 60 W/m2
11:55 10 °C 9.1 °C 1031 hPa WNW 3.2 km/h 3.2 km/h 94 % 0 mm 81 W/m2
12:00 10.1 °C 9.1 °C 1031 hPa WNW 4.8 km/h 4.8 km/h 94 % 0 mm 95 W/m2
12:10 10.1 °C 9.2 °C 1031 hPa NW 4.8 km/h 8 km/h 94 % 0 mm 86 W/m2
12:15 10.2 °C 9.2 °C 1031 hPa NNW 4.8 km/h 8 km/h 94 % 0 mm 84 W/m2
12:20 10.2 °C 9.2 °C 1030.7 hPa NW 3.2 km/h 3.2 km/h 93 % 0 mm 104 W/m2
12:25 10.3 °C 9.2 °C 1030.7 hPa NNW 1.6 km/h 3.2 km/h 93 % 0 mm 167 W/m2
12:30 10.4 °C 9.3 °C 1030.7 hPa NNW 1.6 km/h 1.6 km/h 93 % 0 mm 135 W/m2
12:35 10.5 °C 9.4 °C 1030.7 hPa NNW 1.6 km/h 1.6 km/h 93 % 0 mm 167 W/m2
12:45 10.8 °C 9.7 °C 1030.4 hPa NNW 3.2 km/h 6.4 km/h 93 % 0 mm 151 W/m2
12:50 10.9 °C 9.7 °C 1030.7 hPa NNW 3.2 km/h 4.8 km/h 92 % 0 mm 135 W/m2
12:55 10.9 °C 9.6 °C 1030.4 hPa NNW 3.2 km/h 4.8 km/h 91 % 0 mm 79 W/m2
13:00 10.9 °C 9.6 °C 1030.4 hPa NW 3.2 km/h 4.8 km/h 91 % 0 mm 72 W/m2
13:05 11 °C 9.6 °C 1030.4 hPa NW 3.2 km/h 4.8 km/h 91 % 0 mm 130 W/m2
13:10 11 °C 9.4 °C 1030.4 hPa NW 1.6 km/h 1.6 km/h 90 % 0 mm 69 W/m2
13:15 11.1 °C 9.5 °C 1030.4 hPa NW 1.6 km/h 1.6 km/h 90 % 0 mm 56 W/m2
13:25 11.1 °C 9.3 °C 1030.4 hPa NW 4.8 km/h 4.8 km/h 89 % 0 mm 40 W/m2
13:30 11 °C 9.3 °C 1030.4 hPa NW 6.4 km/h 6.4 km/h 89 % 0 mm 23 W/m2
13:35 10.9 °C 9.1 °C 1030.4 hPa WNW 6.4 km/h 9.7 km/h 88 % 0 mm 39 W/m2
13:40 10.9 °C 9 °C 1030.4 hPa NW 8 km/h 8 km/h 88 % 0 mm 35 W/m2
13:45 10.8 °C 8.9 °C 1030.4 hPa NW 6.4 km/h 8 km/h 88 % 0 mm 32 W/m2
13:50 10.8 °C 8.9 °C 1030.4 hPa NW 4.8 km/h 4.8 km/h 88 % 0 mm 32 W/m2
14:00 10.7 °C 8.8 °C 1030.4 hPa NW 3.2 km/h 3.2 km/h 88 % 0 mm 28 W/m2
14:05 10.7 °C 8.8 °C 1030.7 hPa NW 3.2 km/h 3.2 km/h 88 % 0 mm 32 W/m2
14:10 10.7 °C 8.9 °C 1030.7 hPa NW 3.2 km/h 4.8 km/h 89 % 0 mm 21 W/m2
14:15 10.7 °C 8.9 °C 1030.7 hPa NW 1.6 km/h 4.8 km/h 89 % 0 mm 19 W/m2
14:20 10.6 °C 8.9 °C 1030.7 hPa WNW 3.2 km/h 11.3 km/h 89 % 0 mm 25 W/m2
14:25 10.6 °C 8.8 °C 1030.7 hPa NNW 4.8 km/h 11.3 km/h 89 % 0 mm 26 W/m2
14:35 10.5 °C 8.8 °C 1030.7 hPa NW 3.2 km/h 4.8 km/h 89 % 0 mm 14 W/m2
14:40 10.5 °C 8.8 °C 1030.7 hPa NW 1.6 km/h 1.6 km/h 89 % 0 mm 32 W/m2
14:45 10.5 °C 8.9 °C 1030.7 hPa NW 1.6 km/h 3.2 km/h 90 % 0 mm 37 W/m2
14:50 10.5 °C 8.9 °C 1030.7 hPa WNW 1.6 km/h 1.6 km/h 90 % 0 mm 37 W/m2
14:55 10.4 °C 8.9 °C 1030.7 hPa WNW 1.6 km/h 1.6 km/h 90 % 0 mm 35 W/m2
15:00 10.4 °C 8.9 °C 1030.7 hPa NW 1.6 km/h 3.2 km/h 90 % 0 mm 26 W/m2
15:05 10.4 °C 8.9 °C 1030.7 hPa NW 1.6 km/h 3.2 km/h 90 % 0 mm 23 W/m2
15:10 10.4 °C 8.9 °C 1030.7 hPa NW 1.6 km/h 1.6 km/h 90 % 0 mm 23 W/m2
15:15 10.4 °C 8.9 °C 1030.7 hPa West 3.2 km/h 6.4 km/h 90 % 0 mm 18 W/m2
15:20 10.4 °C 8.8 °C 1030.7 hPa WNW 4.8 km/h 8 km/h 90 % 0 mm 18 W/m2
15:35 10.3 °C 8.7 °C 1030.7 hPa WNW 8 km/h 11.3 km/h 90 % 0 mm 11 W/m2
15:40 10.2 °C 8.7 °C 1031 hPa WNW 8 km/h 9.7 km/h 90 % 0 mm 9 W/m2
15:45 10.2 °C 8.8 °C 1031 hPa NW 6.4 km/h 9.7 km/h 91 % 0 mm 5 W/m2
15:55 10.1 °C 8.7 °C 1030.7 hPa NW 3.2 km/h 6.4 km/h 91 % 0 mm 7 W/m2
16:00 10.1 °C 8.7 °C 1031 hPa WNW 4.8 km/h 9.7 km/h 91 % 0 mm 5 W/m2
16:05 9.9 °C 8.6 °C 1031 hPa NW 6.4 km/h 9.7 km/h 91 % 0 mm 0 W/m2
16:10 9.9 °C 8.5 °C 1031 hPa NW 6.4 km/h 6.4 km/h 91 % 0 mm 0 W/m2
16:20 9.7 °C 8.3 °C 1031 hPa NW 6.4 km/h 6.4 km/h 91 % 0 mm 0 W/m2
16:25 9.6 °C 8.2 °C 1031 hPa NW 4.8 km/h 6.4 km/h 91 % 0 mm 0 W/m2
16:30 9.4 °C 8 °C 1031 hPa NW 3.2 km/h 3.2 km/h 91 % 0 mm 0 W/m2
16:35 9.3 °C 7.9 °C 1031 hPa NW 1.6 km/h 3.2 km/h 91 % 0 mm 0 W/m2
16:40 9.2 °C 7.9 °C 1031 hPa Calm   1.6 km/h 92 % 0 mm 0 W/m2
16:45 9.1 °C 7.7 °C 1031 hPa Calm   1.6 km/h 91 % 0 mm 0 W/m2
16:55 8.7 °C 7.5 °C 1031 hPa Calm   1.6 km/h 92 % 0 mm 0 W/m2
17:00 8.6 °C 7.4 °C 1030.7 hPa Calm   1.6 km/h 92 % 0 mm 0 W/m2
17:05 8.4 °C 7.2 °C 1030.7 hPa Calm   1.6 km/h 92 % 0 mm 0 W/m2
17:10 8.3 °C 7.1 °C 1030.7 hPa Calm   1.6 km/h 92 % 0 mm 0 W/m2
17:15 8.2 °C 6.9 °C 1030.7 hPa Calm   1.6 km/h 92 % 0 mm 0 W/m2
17:20 7.9 °C 6.7 °C 1031 hPa Calm   1.6 km/h 92 % 0 mm 0 W/m2
17:30 7.6 °C 6.4 °C 1031 hPa Calm   1.6 km/h 92 % 0 mm 0 W/m2
17:35 7.4 °C 6.4 °C 1031 hPa Calm   1.6 km/h 93 % 0 mm 0 W/m2
17:40 7.3 °C 6.3 °C 1031 hPa Calm   1.6 km/h 93 % 0 mm 0 W/m2
17:45 7.2 °C 6.2 °C 1031 hPa Calm   1.6 km/h 93 % 0 mm 0 W/m2
17:50 7.2 °C 6.3 °C 1031 hPa Calm   1.6 km/h 94 % 0 mm 0 W/m2
17:55 7.2 °C 6.3 °C 1031 hPa Calm   1.6 km/h 94 % 0 mm 0 W/m2
18:05 7.2 °C 6.5 °C 1031 hPa Calm   1.6 km/h 95 % 0 mm 0 W/m2
18:10 7.2 °C 6.5 °C 1031 hPa Calm   1.6 km/h 95 % 0 mm 0 W/m2
18:15 7.3 °C 6.6 °C 1031 hPa Calm   1.6 km/h 95 % 0 mm 0 W/m2
18:20 7.3 °C 6.6 °C 1031 hPa Calm   1.6 km/h 95 % 0 mm 0 W/m2
18:25 7.4 °C 6.7 °C 1031 hPa Calm   1.6 km/h 95 % 0 mm 0 W/m2
18:30 7.4 °C 6.7 °C 1031 hPa Calm   1.6 km/h 95 % 0 mm 0 W/m2
18:40 7.4 °C 6.7 °C 1031 hPa Calm   1.6 km/h 95 % 0 mm 0 W/m2
18:45 7.3 °C 6.6 °C 1031 hPa Calm   3.2 km/h 95 % 0 mm 0 W/m2
18:50 7.4 °C 6.8 °C 1031 hPa NW 3.2 km/h 6.4 km/h 96 % 0 mm 0 W/m2
18:55 7.7 °C 7.1 °C 1031 hPa NW 6.4 km/h 6.4 km/h 96 % 0 mm 0 W/m2
19:00 7.9 °C 7.3 °C 1031 hPa WNW 6.4 km/h 6.4 km/h 96 % 0 mm 0 W/m2
19:05 8.2 °C 7.7 °C 1031 hPa West 6.4 km/h 9.7 km/h 97 % 0 mm 0 W/m2
19:15 8.1 °C 7.5 °C 1031 hPa WNW 4.8 km/h 8 km/h 96 % 0 mm 0 W/m2
19:20 8.1 °C 7.3 °C 1031 hPa WNW 4.8 km/h 4.8 km/h 95 % 0 mm 0 W/m2
19:25 8.1 °C 7.4 °C 1031 hPa NW 4.8 km/h 8 km/h 96 % 0 mm 0 W/m2
19:30 8.2 °C 7.6 °C 1031 hPa NW 6.4 km/h 6.4 km/h 96 % 0 mm 0 W/m2
19:35 8.2 °C 7.6 °C 1031 hPa NW 6.4 km/h 6.4 km/h 96 % 0 mm 0 W/m2
19:45 8.3 °C 7.7 °C 1031 hPa WNW 6.4 km/h 9.7 km/h 96 % 0 mm 0 W/m2
19:50 8.3 °C 7.6 °C 1031 hPa WNW 6.4 km/h 8 km/h 95 % 0 mm 0 W/m2
19:55 8.3 °C 7.6 °C 1031 hPa WNW 6.4 km/h 8 km/h 95 % 0 mm 0 W/m2
20:00 8.3 °C 7.5 °C 1031 hPa WNW 6.4 km/h 6.4 km/h 95 % 0 mm 0 W/m2
20:05 8.2 °C 7.4 °C 1031 hPa WNW 4.8 km/h 6.4 km/h 95 % 0 mm 0 W/m2
20:10 8.1 °C 7.2 °C 1031 hPa WNW 4.8 km/h 4.8 km/h 94 % 0 mm 0 W/m2
20:20 7.8 °C 6.9 °C 1031 hPa WNW 4.8 km/h 4.8 km/h 94 % 0 mm 0 W/m2
20:25 7.7 °C 6.8 °C 1031 hPa WNW 3.2 km/h 4.8 km/h 94 % 0 mm 0 W/m2
20:35 7.4 °C 6.5 °C 1031.4 hPa Calm   1.6 km/h 94 % 0 mm 0 W/m2
20:40 7.2 °C 6.3 °C 1031.4 hPa Calm   1.6 km/h 94 % 0 mm 0 W/m2
20:50 7 °C 6.1 °C 1031.4 hPa Calm   1.6 km/h 94 % 0 mm 0 W/m2
20:55 6.9 °C 6 °C 1031.4 hPa Calm   1.6 km/h 94 % 0 mm 0 W/m2
21:00 6.8 °C 5.9 °C 1031.4 hPa Calm   1.6 km/h 94 % 0 mm 0 W/m2
21:05 6.6 °C 5.7 °C 1031.4 hPa Calm   1.6 km/h 94 % 0 mm 0 W/m2
21:10 6.4 °C 5.6 °C 1031.4 hPa Calm   1.6 km/h 94 % 0 mm 0 W/m2
21:15 6.3 °C 5.4 °C 1031.4 hPa Calm   1.6 km/h 94 % 0 mm 0 W/m2
21:25 6.2 °C 5.4 °C 1031.4 hPa WNW 3.2 km/h 3.2 km/h 95 % 0 mm 0 W/m2
21:30 6.2 °C 5.4 °C 1031.4 hPa WNW 3.2 km/h 3.2 km/h 95 % 0 mm 0 W/m2
21:35 6.1 °C 5.4 °C 1031.4 hPa WNW 1.6 km/h 3.2 km/h 95 % 0 mm 0 W/m2
21:40 5.9 °C 5.2 °C 1031.4 hPa Calm   1.6 km/h 95 % 0 mm 0 W/m2
21:45 5.7 °C 4.8 °C 1031.4 hPa Calm   1.6 km/h 94 % 0 mm 0 W/m2
21:50 5.5 °C 4.6 °C 1031.4 hPa Calm   1.6 km/h 94 % 0 mm 0 W/m2
22:00 5.4 °C 4.7 °C 1031.4 hPa WNW 1.6 km/h 4.8 km/h 95 % 0 mm 0 W/m2
22:05 5.5 °C 4.9 °C 1031.4 hPa WNW 3.2 km/h 4.8 km/h 96 % 0 mm 0 W/m2
22:10 5.6 °C 5 °C 1031.4 hPa WNW 4.8 km/h 4.8 km/h 96 % 0 mm 0 W/m2
22:15 5.7 °C 5.1 °C 1031.4 hPa WNW 6.4 km/h 6.4 km/h 96 % 0 mm 0 W/m2
22:20 5.7 °C 5.1 °C 1031.4 hPa WNW 4.8 km/h 8 km/h 96 % 0 mm 0 W/m2
22:25 5.7 °C 5.1 °C 1031.4 hPa WNW 4.8 km/h 8 km/h 96 % 0 mm 0 W/m2
22:30 5.6 °C 5 °C 1031.4 hPa WNW 6.4 km/h 8 km/h 96 % 0 mm 0 W/m2
22:35 5.7 °C 5.1 °C 1031.4 hPa WNW 6.4 km/h 8 km/h 96 % 0 mm 0 W/m2
22:40 5.7 °C 5.1 °C 1031.4 hPa WNW 6.4 km/h 8 km/h 96 % 0 mm 0 W/m2
22:45 5.7 °C 5.1 °C 1031.4 hPa WNW 6.4 km/h 8 km/h 96 % 0 mm 0 W/m2
22:50 5.7 °C 5.1 °C 1031.4 hPa WNW 6.4 km/h 8 km/h 96 % 0 mm 0 W/m2
22:55 5.8 °C 5.2 °C 1031.4 hPa WNW 4.8 km/h 8 km/h 96 % 0 mm 0 W/m2
23:00 5.8 °C 5.2 °C 1031.4 hPa WNW 1.6 km/h 1.6 km/h 96 % 0 mm 0 W/m2
23:10 5.7 °C 5.1 °C 1031.4 hPa Calm   1.6 km/h 96 % 0 mm 0 W/m2
23:15 5.6 °C 4.9 °C 1031.4 hPa Calm   1.6 km/h 96 % 0 mm 0 W/m2
23:20 5.4 °C 4.8 °C 1031 hPa Calm   3.2 km/h 96 % 0 mm 0 W/m2
23:30 5.3 °C 4.7 °C 1031 hPa WNW 4.8 km/h 6.4 km/h 96 % 0 mm 0 W/m2
23:35 5.4 °C 4.8 °C 1031.4 hPa WNW 6.4 km/h 6.4 km/h 96 % 0 mm 0 W/m2
23:40 5.4 °C 4.8 °C 1031.4 hPa WNW 6.4 km/h 6.4 km/h 96 % 0 mm 0 W/m2
23:45 5.4 °C 4.8 °C 1031 hPa WNW 4.8 km/h 6.4 km/h 96 % 0 mm 0 W/m2
23:55 5.4 °C 4.8 °C 1031.4 hPa WNW 3.2 km/h 4.8 km/h 96 % 0 mm 0 W/m2
Delerius-Weather
Compliments of Weather Underground - 2 mb

Data updates at regular intervals.